This is the latest recevied weather packets stored in our database for station/object EB1BWO-11. If no packets are shown the sender has not sent any weather packets the latest 10 day(s).
| Time | Temp. | Humidity | Pressure | Rain* | Wind** | Luminosity | Snow |
|---|---|---|---|---|---|---|---|
| 1777488025 | 15.56° C | 77% | 1011 hPa | - | - | - | - |
| 1777487126 | 15.56° C | 76% | 1010.9 hPa | - | - | - | - |
| 1777486225 | 15.56° C | 76% | 1011 hPa | - | - | - | - |
| 1777485325 | 16.11° C | 75% | 1011 hPa | - | - | - | - |
| 1777484425 | 16.67° C | 74% | 1010.6 hPa | - | - | - | - |
| 1777483525 | 16.67° C | 74% | 1010.4 hPa | - | - | - | - |
| 1777482625 | 16.67° C | 74% | 1010.3 hPa | - | - | - | - |
| 1777481725 | 16.67° C | 74% | 1010.1 hPa | - | - | - | - |
| 1777480825 | 17.22° C | 72% | 1010.5 hPa | - | - | - | - |
| 1777479924 | 18.33° C | 70% | 1010.4 hPa | - | - | - | - |
| 1777479024 | 18.89° C | 69% | 1010.4 hPa | - | - | - | - |
| 1777478124 | 19.44° C | 68% | 1010.4 hPa | - | - | - | - |
| 1777477224 | 19.44° C | 67% | 1010.3 hPa | - | - | - | - |
| 1777476324 | 18.33° C | 70% | 1010.5 hPa | - | - | - | - |
| 1777475424 | 17.22° C | 71% | 1010.8 hPa | - | - | - | - |
| 1777474524 | 17.78° C | 71% | 1010.7 hPa | - | - | - | - |
| 1777473623 | 19.44° C | 68% | 1010.8 hPa | - | - | - | - |
| 1777472723 | 20° C | 65% | 1010.5 hPa | - | - | - | - |
| 1777471823 | 16.67° C | 71% | 1010.8 hPa | - | - | - | - |
| 1777470923 | 16.67° C | 71% | 1010.7 hPa | - | - | - | - |
| 1777470023 | 16.11° C | 72% | 1010.6 hPa | - | - | - | - |
| 1777469124 | 16.67° C | 72% | 1010.6 hPa | - | - | - | - |
| 1777468223 | 16.11° C | 72% | 1010.3 hPa | - | - | - | - |
| 1777467323 | 15.56° C | 73% | 1010.5 hPa | - | - | - | - |
| 1777466422 | 16.11° C | 73% | 1010.2 hPa | - | - | - | - |
* Rain since midnight (hover to see other rain measurements)
** Current wind speed in m/s (hover to see current wind gust speed)